Time;durP1;ratioP1;P1;durP2;ratioP2;P2;SDS_P1;SDS_P2;PMS_P1;PMS_P2;Temp;Humidity;BMP_temperature;BMP_pressure;BME280_temperature;BME280_humidity;BME280_pressure;Samples;Min_cycle;Max_cycle;Signal;HPM_P1;HPM_P2
2023/07/15 00:00:21;;;;;;;0.57;0.47;;;21.20;62.40;;;;;;5074852;28;20059;-79
2023/07/15 00:02:47;;;;;;;0.28;0.28;;;21.20;62.50;;;;;;5091847;28;20032;-84
2023/07/15 00:05:35;;;;;;;;;;;21.20;62.50;;;;;;5092415;28;20512;-84
2023/07/15 00:08:20;;;;;;;1.35;0.47;;;21.10;62.40;;;;;;5075685;28;20021;-84
2023/07/15 00:10:47;;;;;;;0.70;0.40;;;21.10;63.10;;;;;;5086686;28;20043;-83
2023/07/15 00:13:16;;;;;;;0.43;0.43;;;21.00;62.50;;;;;;5071490;28;20036;-78
2023/07/15 00:15:45;;;;;;;0.30;0.30;;;21.00;63.30;;;;;;5071414;28;20175;-84
2023/07/15 00:18:14;;;;;;;2.63;0.98;;;21.00;63.20;;;;;;5071665;28;20108;-80
2023/07/15 00:20:42;;;;;;;0.88;0.52;;;20.90;63.50;;;;;;5054907;28;20051;-79
2023/07/15 00:23:27;;;;;;;0.22;0.22;;;20.90;63.70;;;;;;5054291;28;20052;-79
2023/07/15 00:25:53;;;;;;;0.40;0.20;;;21.00;63.80;;;;;;5054580;28;20036;-79
2023/07/15 00:28:21;;;;;;;0.20;0.20;;;21.00;63.60;;;;;;5071453;28;20043;-85
2023/07/15 00:31:12;;;;;;;0.75;0.45;;;21.00;63.60;;;;;;5071572;28;20283;-85
2023/07/15 00:33:40;;;;;;;0.40;0.40;;;21.00;63.40;;;;;;5071676;28;20037;-85
2023/07/15 00:36:07;;;;;;;0.80;0.40;;;21.00;63.50;;;;;;5071013;28;20036;-79
2023/07/15 00:38:34;;;;;;;0.32;0.20;;;21.00;63.50;;;;;;5071278;28;20040;-79
2023/07/15 00:41:01;;;;;;;0.40;0.40;;;21.00;63.60;;;;;;5053822;28;20043;-86
2023/07/15 00:44:06;;;;;;;0.20;0.20;;;20.90;64.20;;;;;;5071698;28;20033;-79
2023/07/15 00:47:30;;;;;;;0.75;0.40;;;21.00;63.70;;;;;;5071362;28;20047;-81
2023/07/15 00:49:57;;;;;;;1.05;0.47;;;21.00;63.80;;;;;;5071316;28;20033;-79
2023/07/15 00:52:23;;;;;;;0.32;0.25;;;20.90;64.00;;;;;;5054028;28;20264;-79
2023/07/15 00:54:54;;;;;;;0.25;0.20;;;20.90;64.00;;;;;;5054370;28;20032;-85
2023/07/15 00:57:22;;;;;;;0.52;0.43;;;20.90;64.00;;;;;;5072134;28;20033;-79
2023/07/15 00:59:52;;;;;;;0.38;0.30;;;20.80;64.00;;;;;;5071483;28;20033;-86
2023/07/15 01:02:18;;;;;;;1.08;0.47;;;20.90;64.40;;;;;;5072648;28;20036;-80
2023/07/15 01:04:46;;;;;;;0.85;0.85;;;20.80;63.70;;;;;;5075020;28;20044;-86
2023/07/15 01:07:12;;;;;;;0.10;0.10;;;20.80;64.70;;;;;;5075438;28;20039;-87
2023/07/15 01:09:39;;;;;;;;;;;20.80;64.60;;;;;;5058596;28;20074;-86
2023/07/15 01:12:06;;;;;;;0.32;0.32;;;20.70;64.70;;;;;;5073724;28;20418;-80
2023/07/15 01:14:32;;;;;;;0.40;0.40;;;20.60;64.60;;;;;;5074784;28;20047;-85
2023/07/15 01:16:58;;;;;;;1.00;0.63;;;20.60;64.30;;;;;;5057396;28;20036;-85
2023/07/15 01:19:24;;;;;;;;;;;20.60;65.10;;;;;;5076387;28;20033;-79
2023/07/15 01:21:52;;;;;;;0.20;0.20;;;20.60;64.70;;;;;;5057596;28;19962;-78
2023/07/15 01:24:20;;;;;;;0.10;0.10;;;20.50;64.80;;;;;;5057730;28;20025;-79
2023/07/15 01:26:49;;;;;;;1.35;0.50;;;20.50;64.70;;;;;;5073687;28;20048;-86
2023/07/15 01:29:15;;;;;;;0.10;0.10;;;20.40;65.00;;;;;;5074419;28;20028;-79
2023/07/15 01:31:42;;;;;;;;;;;20.40;65.50;;;;;;5058039;28;20028;-79
2023/07/15 01:34:08;;;;;;;0.20;0.20;;;20.40;65.40;;;;;;5057405;28;19921;-80
2023/07/15 01:36:34;;;;;;;0.17;0.17;;;20.30;64.90;;;;;;5073535;28;20111;-86
2023/07/15 01:39:00;;;;;;;;;;;20.30;65.40;;;;;;5074979;28;20040;-79
2023/07/15 01:41:26;;;;;;;0.17;0.17;;;20.30;65.40;;;;;;5073972;28;19920;-79
2023/07/15 01:43:52;;;;;;;;;;;20.30;65.30;;;;;;5074449;28;20098;-79
2023/07/15 01:46:19;;;;;;;1.52;0.38;;;20.30;65.30;;;;;;5074989;28;20078;-80
2023/07/15 01:48:45;;;;;;;0.30;0.30;;;20.30;65.40;;;;;;5074263;28;20029;-86
2023/07/15 01:51:11;;;;;;;0.30;0.20;;;20.30;65.50;;;;;;5074831;28;20040;-81
2023/07/15 01:53:37;;;;;;;0.65;0.52;;;20.30;65.50;;;;;;5057150;28;20389;-79
2023/07/15 01:56:03;;;;;;;;;;;20.30;65.60;;;;;;5073638;28;20063;-85
2023/07/15 01:58:29;;;;;;;0.32;0.30;;;20.30;65.30;;;;;;5074189;28;20273;-80
2023/07/15 02:00:55;;;;;;;;;;;20.30;65.50;;;;;;5073998;28;20425;-85
2023/07/15 02:03:21;;;;;;;0.57;0.20;;;20.20;65.50;;;;;;5073532;28;20081;-80
2023/07/15 02:05:48;;;;;;;;;;;20.20;65.50;;;;;;5056839;28;20083;-79
2023/07/15 02:08:14;;;;;;;0.20;0.20;;;20.20;65.70;;;;;;5073592;28;19916;-79
2023/07/15 02:10:40;;;;;;;;;;;20.10;65.70;;;;;;5056685;28;20051;-85
2023/07/15 02:13:06;;;;;;;0.63;0.22;;;20.10;65.80;;;;;;5055925;28;20011;-80
2023/07/15 02:15:32;;;;;;;0.28;0.20;;;20.10;65.90;;;;;;5072812;28;20033;-80
2023/07/15 02:17:58;;;;;;;;;;;20.20;66.70;;;;;;5057123;28;20124;-85
2023/07/15 02:20:24;;;;;;;0.20;0.20;;;20.10;66.10;;;;;;5073522;28;19924;-85
2023/07/15 02:22:52;;;;;;;0.38;0.20;;;20.10;66.20;;;;;;5074669;28;20103;-80
2023/07/15 02:25:19;;;;;;;0.30;0.22;;;20.20;66.30;;;;;;5056608;28;20028;-80
2023/07/15 02:27:46;;;;;;;0.47;0.40;;;20.10;65.80;;;;;;5056743;28;20052;-80
2023/07/15 02:30:13;;;;;;;0.10;0.10;;;20.10;66.60;;;;;;5072843;28;20405;-79
2023/07/15 02:32:42;;;;;;;0.30;0.30;;;20.10;66.70;;;;;;5072979;28;20036;-79
2023/07/15 02:35:10;;;;;;;0.50;0.47;;;20.00;66.70;;;;;;5072238;28;20037;-79
2023/07/15 02:37:56;;;;;;;0.43;0.38;;;20.10;66.50;;;;;;5073136;28;20028;-85
2023/07/15 02:40:23;;;;;;;0.65;0.30;;;20.10;66.70;;;;;;5073107;28;20509;-85
2023/07/15 02:42:49;;;;;;;0.15;0.15;;;20.10;67.10;;;;;;5074214;28;20404;-84
2023/07/15 02:45:15;;;;;;;0.47;0.35;;;20.00;66.90;;;;;;5072627;28;20070;-85
2023/07/15 02:47:42;;;;;;;0.93;0.40;;;20.00;66.80;;;;;;5056498;28;20043;-85
2023/07/15 02:50:09;;;;;;;;;;;20.00;66.80;;;;;;5056903;28;20042;-86
2023/07/15 02:52:37;;;;;;;0.13;0.13;;;20.00;66.50;;;;;;5073117;28;19939;-80
2023/07/15 02:55:06;;;;;;;0.20;0.20;;;19.90;66.40;;;;;;5072587;28;20045;-80
2023/07/15 02:57:33;;;;;;;0.63;0.35;;;19.90;66.50;;;;;;5072681;28;20032;-84
2023/07/15 02:59:59;;;;;;;0.57;0.43;;;19.80;66.70;;;;;;5072756;28;20060;-81
2023/07/15 03:02:27;;;;;;;0.60;0.45;;;19.80;66.80;;;;;;5073180;28;20426;-81
2023/07/15 03:04:53;;;;;;;1.02;0.32;;;19.80;66.60;;;;;;5072694;28;20131;-83
2023/07/15 03:07:20;;;;;;;;;;;19.80;66.70;;;;;;5056085;28;20367;-81
2023/07/15 03:09:46;;;;;;;0.10;0.10;;;19.70;66.60;;;;;;5056261;28;19924;-84
2023/07/15 03:12:12;;;;;;;1.00;0.98;;;19.70;66.20;;;;;;5071686;28;20453;-81
2023/07/15 03:14:39;;;;;;;;;;;19.70;67.00;;;;;;5056535;28;20520;-80
2023/07/15 03:17:05;;;;;;;0.30;0.30;;;19.70;66.90;;;;;;5055314;28;20405;-82
2023/07/15 03:19:32;;;;;;;0.40;0.40;;;19.70;66.90;;;;;;5073584;28;20036;-81
2023/07/15 03:21:59;;;;;;;1.40;1.10;;;19.70;66.40;;;;;;5055199;28;20040;-81
2023/07/15 03:24:25;;;;;;;0.90;0.70;;;19.70;67.10;;;;;;5055646;28;20132;-80
2023/07/15 03:26:53;;;;;;;0.25;0.25;;;19.60;66.90;;;;;;5071830;28;20152;-80
2023/07/15 03:29:20;;;;;;;1.10;0.95;;;19.60;67.10;;;;;;5072567;28;20032;-81
2023/07/15 03:31:46;;;;;;;0.47;0.30;;;19.60;67.20;;;;;;5071876;28;20540;-83
2023/07/15 03:34:12;;;;;;;;;;;19.60;67.60;;;;;;5072944;28;20048;-82
2023/07/15 03:36:38;;;;;;;0.25;0.25;;;19.60;67.50;;;;;;5055202;28;19916;-82
2023/07/15 03:39:05;;;;;;;;;;;19.60;67.50;;;;;;5072926;28;20057;-82
2023/07/15 03:41:32;;;;;;;0.45;0.45;;;19.60;67.20;;;;;;5072875;28;19966;-82
2023/07/15 03:43:58;;;;;;;0.52;0.40;;;19.60;67.00;;;;;;5072417;28;20392;-82
2023/07/15 03:46:24;;;;;;;;;;;19.60;67.40;;;;;;5072009;28;20036;-81
2023/07/15 03:48:50;;;;;;;0.10;0.10;;;19.60;67.50;;;;;;5072383;28;19921;-82
2023/07/15 03:51:16;;;;;;;0.90;0.75;;;19.60;67.70;;;;;;5072920;28;20043;-82
2023/07/15 03:53:42;;;;;;;1.48;0.70;;;19.70;67.80;;;;;;5072003;28;20047;-81
2023/07/15 03:56:08;;;;;;;;;;;19.70;67.50;;;;;;5072327;28;20109;-82
2023/07/15 03:58:34;;;;;;;0.38;0.35;;;19.70;67.30;;;;;;5072380;28;19944;-82
2023/07/15 04:01:00;;;;;;;1.20;0.47;;;19.70;67.50;;;;;;5071653;28;20037;-81
2023/07/15 04:03:26;;;;;;;;;;;19.70;67.60;;;;;;5073667;28;20036;-82
2023/07/15 04:05:52;;;;;;;1.30;1.25;;;19.70;67.50;;;;;;5071715;28;20011;-81
2023/07/15 04:08:18;;;;;;;0.70;0.57;;;19.70;67.40;;;;;;5073551;28;20102;-82
2023/07/15 04:11:03;;;;;;;0.30;0.30;;;19.70;67.60;;;;;;5071274;28;20070;-82
2023/07/15 04:13:29;;;;;;;0.73;0.60;;;19.70;67.60;;;;;;5072020;28;20120;-82
2023/07/15 04:15:55;;;;;;;0.20;0.20;;;19.80;67.60;;;;;;5071618;28;20039;-81
2023/07/15 04:18:21;;;;;;;1.80;1.48;;;19.80;67.20;;;;;;5071964;28;20394;-82
2023/07/15 04:20:47;;;;;;;0.20;0.20;;;19.80;67.10;;;;;;5071573;28;20086;-81
2023/07/15 04:23:13;;;;;;;;;;;19.80;67.10;;;;;;5055527;28;20468;-82
2023/07/15 04:25:39;;;;;;;0.10;0.10;;;19.90;67.20;;;;;;5054645;28;20007;-82
2023/07/15 04:28:05;;;;;;;;;;;20.00;66.80;;;;;;5072262;28;20445;-82
2023/07/15 04:30:31;;;;;;;0.20;0.20;;;20.10;66.80;;;;;;5071527;28;19916;-82
2023/07/15 04:32:57;;;;;;;;;;;20.10;66.90;;;;;;5055437;28;20036;-82
2023/07/15 04:35:23;;;;;;;0.15;0.15;;;20.20;67.00;;;;;;5054647;28;20423;-81
2023/07/15 04:37:50;;;;;;;;;;;20.20;67.00;;;;;;5074726;28;20134;-82
2023/07/15 04:40:16;;;;;;;0.55;0.30;;;20.20;67.30;;;;;;5076433;28;19943;-82
2023/07/15 04:42:43;;;;;;;2.17;0.98;;;20.20;67.30;;;;;;5075407;28;20106;-81
2023/07/15 04:45:09;;;;;;;;;;;20.20;67.50;;;;;;5075693;28;20075;-82
2023/07/15 04:47:36;;;;;;;0.52;0.47;;;20.30;67.60;;;;;;5058783;28;20018;-82
2023/07/15 04:50:02;;;;;;;0.63;0.30;;;20.20;67.80;;;;;;5075330;28;20485;-82
2023/07/15 04:52:28;;;;;;;0.30;0.30;;;20.30;68.40;;;;;;5076197;28;20025;-82
2023/07/15 04:54:54;;;;;;;0.80;0.30;;;20.30;68.80;;;;;;5058608;28;20040;-82
2023/07/15 04:57:21;;;;;;;0.73;0.73;;;20.30;68.90;;;;;;5075307;28;20036;-82
2023/07/15 04:59:48;;;;;;;0.43;0.32;;;20.30;68.50;;;;;;5075302;28;20036;-80
2023/07/15 05:02:15;;;;;;;0.70;0.50;;;20.30;69.10;;;;;;5074508;28;20024;-81
2023/07/15 05:04:41;;;;;;;1.40;0.57;;;20.40;69.00;;;;;;5075512;28;20527;-81
2023/07/15 05:07:07;;;;;;;;;;;20.40;69.00;;;;;;5074768;28;20037;-83
2023/07/15 05:09:33;;;;;;;0.93;0.50;;;20.50;68.70;;;;;;5075001;28;19969;-79
2023/07/15 05:11:59;;;;;;;;;;;20.50;68.50;;;;;;5074354;28;20036;-81
2023/07/15 05:14:25;;;;;;;1.02;0.50;;;20.60;68.30;;;;;;5074694;28;19920;-79
2023/07/15 05:16:51;;;;;;;1.05;0.70;;;20.60;68.50;;;;;;5057672;28;20170;-83
2023/07/15 05:19:17;;;;;;;0.43;0.43;;;20.60;68.80;;;;;;5074778;28;20504;-79
2023/07/15 05:21:43;;;;;;;;;;;20.70;69.20;;;;;;5074625;28;20025;-81
2023/07/15 05:24:09;;;;;;;0.55;0.40;;;20.60;70.20;;;;;;5073999;28;19998;-79
2023/07/15 05:26:35;;;;;;;0.10;0.10;;;20.60;69.90;;;;;;5073765;28;20040;-80
2023/07/15 05:29:00;;;;;;;;;;;20.70;69.90;;;;;;5074840;28;20043;-83
2023/07/15 05:31:27;;;;;;;0.55;0.30;;;20.80;69.60;;;;;;5073855;28;19913;-80
2023/07/15 05:33:53;;;;;;;0.15;0.15;;;20.80;69.20;;;;;;5057015;28;20523;-83
2023/07/15 05:36:19;;;;;;;0.55;0.55;;;20.90;69.50;;;;;;5056853;28;20024;-79
2023/07/15 05:38:45;;;;;;;;;;;21.00;69.10;;;;;;5075025;28;20370;-79
2023/07/15 05:41:12;;;;;;;1.35;0.60;;;21.00;69.10;;;;;;5057008;28;20014;-84
2023/07/15 05:43:38;;;;;;;0.50;0.40;;;21.10;69.40;;;;;;5057520;28;20056;-83
2023/07/15 05:46:04;;;;;;;;;;;21.20;69.10;;;;;;5074101;28;20408;-79
2023/07/15 05:48:30;;;;;;;0.52;0.52;;;21.20;68.70;;;;;;5074278;28;19916;-85
2023/07/15 05:50:58;;;;;;;;;;;21.30;68.90;;;;;;5074126;28;20040;-82
2023/07/15 05:53:24;;;;;;;0.77;0.55;;;21.30;69.00;;;;;;5074170;28;19927;-79
2023/07/15 05:55:50;;;;;;;;;;;21.40;68.80;;;;;;5074148;28;20045;-83
2023/07/15 05:58:16;;;;;;;0.20;0.20;;;21.40;68.80;;;;;;5074839;28;20386;-80
2023/07/15 06:00:42;;;;;;;;;;;21.50;68.70;;;;;;5074208;28;20524;-79
2023/07/15 06:03:09;;;;;;;0.73;0.73;;;21.70;68.30;;;;;;5073326;28;19912;-79
2023/07/15 06:05:35;;;;;;;0.30;0.30;;;21.70;68.10;;;;;;5072783;28;20036;-83
2023/07/15 06:08:01;;;;;;;0.65;0.38;;;21.80;67.40;;;;;;5073593;28;20020;-79
2023/07/15 06:10:27;;;;;;;0.20;0.20;;;21.90;67.40;;;;;;5056209;28;20040;-81
2023/07/15 06:12:53;;;;;;;;;;;22.00;67.90;;;;;;5057562;28;20028;-79
2023/07/15 06:15:19;;;;;;;0.43;0.40;;;22.10;67.80;;;;;;5072926;28;19920;-79
2023/07/15 06:17:45;;;;;;;0.65;0.65;;;22.10;67.70;;;;;;5073154;28;20035;-79
2023/07/15 06:20:12;;;;;;;;;;;22.20;67.30;;;;;;5057009;28;20432;-81
2023/07/15 06:22:38;;;;;;;0.17;0.15;;;22.30;66.70;;;;;;5074623;28;19919;-79
2023/07/15 06:25:04;;;;;;;;;;;22.40;66.50;;;;;;5056938;28;20028;-83
2023/07/15 06:27:30;;;;;;;0.23;0.20;;;22.50;66.00;;;;;;5074254;28;19985;-82
2023/07/15 06:29:56;;;;;;;;;;;22.70;65.80;;;;;;5074852;28;20036;-82
2023/07/15 06:32:22;;;;;;;1.15;0.20;;;22.80;65.80;;;;;;5072269;28;19923;-81
2023/07/15 06:34:48;;;;;;;0.30;0.30;;;22.90;65.30;;;;;;5074055;28;20128;-78
2023/07/15 06:37:14;;;;;;;;;;;23.00;65.10;;;;;;5072693;28;20036;-79
2023/07/15 06:39:40;;;;;;;0.73;0.43;;;23.10;65.30;;;;;;5072813;28;20278;-81
2023/07/15 06:42:06;;;;;;;;;;;23.20;64.80;;;;;;5073890;28;20037;-79
2023/07/15 06:44:32;;;;;;;0.30;0.30;;;23.30;65.00;;;;;;5072766;28;19922;-81
2023/07/15 06:46:58;;;;;;;;;;;23.40;64.20;;;;;;5072691;28;20028;-80
2023/07/15 06:49:24;;;;;;;0.20;0.20;;;23.50;64.50;;;;;;5072893;28;19978;-82
2023/07/15 06:51:50;;;;;;;;;;;23.60;64.30;;;;;;5073852;28;20036;-82
2023/07/15 06:54:16;;;;;;;0.32;0.20;;;23.70;64.60;;;;;;5072686;28;19921;-80
2023/07/15 06:56:42;;;;;;;;;;;23.80;64.60;;;;;;5055974;28;20041;-81
2023/07/15 06:59:08;;;;;;;0.30;0.30;;;24.00;64.40;;;;;;5072357;28;20024;-80
2023/07/15 07:01:34;;;;;;;0.20;0.17;;;24.10;63.90;;;;;;5071639;28;20033;-82
2023/07/15 07:04:00;;;;;;;;;;;24.30;63.20;;;;;;5073005;28;20043;-80
2023/07/15 07:06:27;;;;;;;0.65;0.47;;;24.50;62.40;;;;;;5071915;28;19912;-79
2023/07/15 07:08:54;;;;;;;1.30;0.70;;;24.70;62.10;;;;;;5073587;28;20508;-80
2023/07/15 07:11:21;;;;;;;1.65;0.40;;;24.90;61.50;;;;;;5054872;28;20063;-82
2023/07/15 07:13:47;;;;;;;0.95;0.60;;;25.00;60.30;;;;;;5072815;28;20059;-80
2023/07/15 07:16:13;;;;;;;1.00;0.50;;;25.10;60.00;;;;;;5071958;28;20036;-80
2023/07/15 07:18:39;;;;;;;0.45;0.28;;;25.30;60.10;;;;;;5072421;28;20033;-79
2023/07/15 07:21:05;;;;;;;;;;;25.50;59.50;;;;;;5072074;28;20474;-82
2023/07/15 07:23:32;;;;;;;0.60;0.40;;;25.70;59.40;;;;;;5055530;28;19916;-79
2023/07/15 07:25:59;;;;;;;0.30;0.30;;;25.80;58.80;;;;;;5054849;28;20051;-79
2023/07/15 07:28:44;;;;;;;0.20;0.20;;;25.80;58.50;;;;;;5071784;28;20485;-79
2023/07/15 07:31:12;;;;;;;0.68;0.43;;;25.80;58.10;;;;;;5055136;28;20037;-83
2023/07/15 07:33:40;;;;;;;0.30;0.28;;;25.90;58.10;;;;;;5055138;28;20036;-83
2023/07/15 07:36:06;;;;;;;1.00;0.50;;;26.00;58.10;;;;;;5071641;28;20094;-83
2023/07/15 07:38:34;;;;;;;0.50;0.50;;;26.10;57.90;;;;;;5055501;28;20036;-83
2023/07/15 07:41:18;;;;;;;0.88;0.70;;;26.20;56.80;;;;;;5054381;28;20028;-83
2023/07/15 07:43:45;;;;;;;0.28;0.28;;;26.20;56.60;;;;;;5055514;28;20036;-84
2023/07/15 07:46:11;;;;;;;0.30;0.30;;;26.40;56.40;;;;;;5054456;28;20324;-83
2023/07/15 07:48:37;;;;;;;0.70;0.43;;;26.50;55.80;;;;;;5072092;28;20374;-82
2023/07/15 07:51:03;;;;;;;0.35;0.30;;;26.60;56.00;;;;;;5071510;28;20067;-79
2023/07/15 07:53:30;;;;;;;0.60;0.47;;;26.70;54.70;;;;;;5070381;28;20048;-83
2023/07/15 07:55:57;;;;;;;0.75;0.55;;;26.80;54.30;;;;;;5071849;28;20047;-79
2023/07/15 07:58:23;;;;;;;0.43;0.43;;;26.80;54.60;;;;;;5083517;28;20081;-81
2023/07/15 08:00:49;;;;;;;0.45;0.32;;;26.90;54.60;;;;;;5074321;28;20036;-82
2023/07/15 08:03:15;;;;;;;0.30;0.30;;;27.00;54.70;;;;;;5075463;28;20367;-82
2023/07/15 08:06:01;;;;;;;0.50;0.40;;;27.00;54.00;;;;;;5070998;28;20047;-79
2023/07/15 08:08:27;;;;;;;0.40;0.30;;;27.10;54.00;;;;;;5062513;28;20027;-79
2023/07/15 08:10:53;;;;;;;0.80;0.77;;;27.20;53.60;;;;;;5068390;28;20039;-84
2023/07/15 08:13:20;;;;;;;0.45;0.38;;;27.30;53.60;;;;;;5074715;28;20043;-83
2023/07/15 08:15:46;;;;;;;0.20;0.20;;;27.40;53.10;;;;;;5075980;28;20242;-79
2023/07/15 08:18:12;;;;;;;0.63;0.38;;;27.50;52.70;;;;;;5075125;28;20375;-79
2023/07/15 08:23:25;;;;;;;0.40;0.32;;;27.70;52.10;;;;;;5075755;28;20478;-83
2023/07/15 08:25:53;;;;;;;0.47;0.43;;;27.80;51.90;;;;;;5075079;28;20036;-78
2023/07/15 08:28:19;;;;;;;0.90;0.40;;;27.90;51.90;;;;;;5076699;28;20040;-83
2023/07/15 08:30:45;;;;;;;0.30;0.30;;;28.00;52.10;;;;;;5074910;28;20086;-79
2023/07/15 08:33:11;;;;;;;1.40;0.60;;;28.00;52.30;;;;;;5076516;28;20420;-79
2023/07/15 08:35:37;;;;;;;0.45;0.40;;;28.10;52.80;;;;;;5074751;28;20086;-81
2023/07/15 08:38:03;;;;;;;1.50;0.85;;;28.20;52.20;;;;;;5058271;28;20032;-82
2023/07/15 08:40:34;;;;;;;0.30;0.30;;;28.40;52.20;;;;;;5057937;28;20436;-79
2023/07/15 08:43:00;;;;;;;0.70;0.68;;;28.50;51.90;;;;;;5075135;28;20369;-79
2023/07/15 08:45:31;;;;;;;0.63;0.40;;;28.60;51.50;;;;;;5074712;28;20036;-82
2023/07/15 08:47:57;;;;;;;0.45;0.35;;;28.70;51.20;;;;;;5074528;28;20036;-79
2023/07/15 08:50:25;;;;;;;0.70;0.70;;;28.80;50.90;;;;;;5057962;28;20024;-83
2023/07/15 08:52:52;;;;;;;0.43;0.38;;;28.90;49.70;;;;;;5058278;28;20439;-79
2023/07/15 08:55:19;;;;;;;0.40;0.30;;;28.90;50.10;;;;;;5074495;28;20033;-83
2023/07/15 08:57:46;;;;;;;0.85;0.57;;;29.00;50.40;;;;;;5058524;28;20051;-81
2023/07/15 09:00:14;;;;;;;0.43;0.43;;;29.10;49.70;;;;;;5057945;28;20542;-82
2023/07/15 09:02:41;;;;;;;0.35;0.30;;;29.20;50.20;;;;;;5074353;28;20024;-82
2023/07/15 09:05:08;;;;;;;0.82;0.50;;;29.40;49.50;;;;;;5075574;28;20045;-80
2023/07/15 09:08:13;;;;;;;0.75;0.50;;;29.60;47.80;;;;;;5057915;28;20236;-82
2023/07/15 09:10:58;;;;;;;0.43;0.40;;;29.90;47.70;;;;;;5057066;28;20039;-79
2023/07/15 09:13:26;;;;;;;1.58;1.38;;;30.30;47.70;;;;;;5057588;28;20039;-79
2023/07/15 09:15:53;;;;;;;0.95;0.73;;;30.80;45.90;;;;;;5074812;28;20066;-81
2023/07/15 09:18:19;;;;;;;0.40;0.28;;;31.40;44.90;;;;;;5074396;28;20093;-79
2023/07/15 09:20:46;;;;;;;0.95;0.52;;;32.20;42.40;;;;;;5057379;28;20029;-82
2023/07/15 09:23:13;;;;;;;0.57;0.50;;;32.80;41.90;;;;;;5073768;28;20039;-83
2023/07/15 09:26:05;;;;;;;0.55;0.30;;;33.60;40.20;;;;;;5057135;28;20033;-78
2023/07/15 09:28:31;;;;;;;0.70;0.70;;;34.20;38.70;;;;;;5074153;28;20044;-82
2023/07/15 09:30:59;;;;;;;0.75;0.57;;;34.90;37.60;;;;;;5056968;28;20060;-78
2023/07/15 09:33:44;;;;;;;0.63;0.55;;;35.50;36.40;;;;;;5074213;28;20033;-79
2023/07/15 09:36:12;;;;;;;0.50;0.35;;;36.20;35.80;;;;;;5073391;28;20086;-83
2023/07/15 09:38:39;;;;;;;0.35;0.35;;;36.80;34.30;;;;;;5076515;28;20021;-79
2023/07/15 09:41:10;;;;;;;0.32;0.32;;;37.40;32.20;;;;;;5073560;28;20389;-83
2023/07/15 09:43:55;;;;;;;0.98;0.77;;;37.90;31.80;;;;;;5074586;28;20435;-79
2023/07/15 09:46:22;;;;;;;0.60;0.60;;;38.80;31.30;;;;;;5053211;28;20064;-83
2023/07/15 09:48:51;;;;;;;3.17;0.68;;;39.30;30.30;;;;;;5054092;28;20072;-83
2023/07/15 09:51:18;;;;;;;0.45;0.45;;;39.90;28.60;;;;;;5052933;28;20037;-82
2023/07/15 09:54:04;;;;;;;0.50;0.50;;;40.50;27.80;;;;;;5037191;28;20063;-79
2023/07/15 09:56:49;;;;;;;;;;;40.90;27.00;;;;;;5053475;28;20029;-84
2023/07/15 09:59:54;;;;;;;0.40;0.40;;;41.60;25.50;;;;;;5036877;28;20414;-78
2023/07/15 10:02:38;;;;;;;0.50;0.50;;;42.10;23.10;;;;;;5054046;28;20535;-79
2023/07/15 10:05:06;;;;;;;0.60;0.50;;;42.80;22.80;;;;;;5036492;28;20044;-82
2023/07/15 10:07:33;;;;;;;0.60;0.60;;;43.40;23.80;;;;;;5052893;28;20083;-82
2023/07/15 10:10:00;;;;;;;0.73;0.73;;;44.10;23.50;;;;;;5053050;28;20037;-84
2023/07/15 10:12:28;;;;;;;1.15;0.88;;;44.70;22.20;;;;;;5053727;28;20035;-79
2023/07/15 10:14:54;;;;;;;1.50;1.00;;;45.10;22.20;;;;;;5052898;28;20037;-82
2023/07/15 10:17:20;;;;;;;0.82;0.77;;;45.90;21.50;;;;;;5052489;28;20033;-80
2023/07/15 10:20:10;;;;;;;0.82;0.82;;;46.60;21.30;;;;;;5053012;28;20040;-81
2023/07/15 10:22:37;;;;;;;1.45;0.88;;;47.30;20.50;;;;;;5069454;28;20043;-81
2023/07/15 10:25:08;;;;;;;1.10;1.00;;;47.90;17.30;;;;;;5052685;28;20036;-81
2023/07/15 10:27:36;;;;;;;2.05;1.25;;;48.10;18.60;;;;;;5054174;28;20049;-82
2023/07/15 10:30:23;;;;;;;1.48;1.38;;;48.80;17.50;;;;;;5052788;28;20033;-79
2023/07/15 10:33:26;;;;;;;5.05;1.83;;;48.80;16.70;;;;;;5052655;28;20137;-82
2023/07/15 10:35:53;;;;;;;1.23;1.13;;;49.40;16.80;;;;;;5051362;28;20067;-82
2023/07/15 10:38:37;;;;;;;1.88;1.45;;;49.80;16.80;;;;;;5054183;28;20057;-79
2023/07/15 10:41:05;;;;;;;1.55;1.35;;;50.40;17.40;;;;;;5052869;28;20036;-81
2023/07/15 10:43:50;;;;;;;2.17;1.80;;;51.00;16.80;;;;;;5052242;28;20033;-81
2023/07/15 10:46:19;;;;;;;1.67;1.55;;;51.30;16.60;;;;;;5051726;28;20037;-78
2023/07/15 10:48:45;;;;;;;1.98;1.73;;;51.60;16.00;;;;;;5052735;28;20040;-83
2023/07/15 10:51:12;;;;;;;2.00;1.80;;;51.80;15.40;;;;;;5051773;28;20406;-79
2023/07/15 10:53:39;;;;;;;2.50;1.92;;;51.90;14.40;;;;;;5052447;28;20390;-78
2023/07/15 10:56:12;;;;;;;2.45;2.25;;;52.10;15.00;;;;;;5051588;28;20045;-82
2023/07/15 10:58:40;;;;;;;2.83;2.20;;;52.20;14.80;;;;;;5052867;28;20526;-83
2023/07/15 11:01:09;;;;;;;2.13;1.92;;;52.60;14.60;;;;;;5051769;28;20478;-83
2023/07/15 11:04:02;;;;;;;1.80;1.70;;;52.70;13.30;;;;;;5067891;28;20033;-79
2023/07/15 11:06:28;;;;;;;2.08;1.88;;;52.80;14.00;;;;;;5050996;28;20037;-79
2023/07/15 11:08:55;;;;;;;2.22;2.03;;;53.50;14.40;;;;;;5035326;28;20037;-83
2023/07/15 11:11:23;;;;;;;2.95;2.45;;;53.80;13.80;;;;;;5050857;28;20033;-78
2023/07/15 11:13:49;;;;;;;2.67;2.47;;;53.80;13.30;;;;;;5051673;28;20056;-82
2023/07/15 11:16:15;;;;;;;3.17;2.35;;;54.40;13.80;;;;;;5051324;28;20033;-79
2023/07/15 11:18:41;;;;;;;2.53;2.33;;;54.70;13.30;;;;;;5053561;28;20067;-78
2023/07/15 11:21:08;;;;;;;2.88;2.22;;;54.80;13.30;;;;;;5051227;28;20055;-83
2023/07/15 11:23:34;;;;;;;3.03;2.72;;;55.10;13.00;;;;;;5051686;28;20129;-79
2023/07/15 11:26:24;;;;;;;2.95;2.65;;;55.10;13.30;;;;;;5034439;28;20086;-79
2023/07/15 11:28:51;;;;;;;3.60;3.30;;;55.70;12.50;;;;;;5051707;28;20055;-79
2023/07/15 11:31:21;;;;;;;2.95;2.65;;;55.80;13.00;;;;;;5051151;28;20039;-79
2023/07/15 11:34:10;;;;;;;3.38;3.08;;;55.80;12.90;;;;;;5052689;28;20166;-79
2023/07/15 11:36:56;;;;;;;3.38;3.08;;;56.20;12.40;;;;;;5034494;28;20041;-79
2023/07/15 11:39:22;;;;;;;4.00;3.60;;;56.20;12.70;;;;;;5052758;28;20037;-78
2023/07/15 11:42:08;;;;;;;4.38;3.97;;;56.60;12.00;;;;;;5050816;28;20043;-79
2023/07/15 11:44:36;;;;;;;4.38;3.97;;;56.70;11.40;;;;;;5034825;28;20037;-82
2023/07/15 11:47:05;;;;;;;3.80;3.50;;;56.70;11.70;;;;;;5050545;28;20079;-79
2023/07/15 11:49:31;;;;;;;3.85;3.53;;;56.60;10.90;;;;;;5034725;28;20064;-79
2023/07/15 11:51:57;;;;;;;4.88;4.38;;;56.70;12.20;;;;;;5051846;28;20041;-78
2023/07/15 11:54:24;;;;;;;4.60;4.20;;;57.10;11.20;;;;;;5051257;28;20037;-81
2023/07/15 11:56:54;;;;;;;4.68;4.28;;;57.30;10.40;;;;;;5033997;28;20033;-78
2023/07/15 11:59:38;;;;;;;4.80;4.40;;;57.40;10.70;;;;;;5051533;28;20124;-81
2023/07/15 12:02:05;;;;;;;5.35;4.72;;;57.70;10.80;;;;;;5051950;28;20036;-79
2023/07/15 12:04:31;;;;;;;5.10;4.70;;;58.00;10.40;;;;;;5051198;28;20120;-81
2023/07/15 12:06:58;;;;;;;5.82;5.32;;;57.80;11.00;;;;;;5050385;28;20061;-79
2023/07/15 12:09:27;;;;;;;5.13;4.72;;;57.90;10.70;;;;;;5034795;28;20037;-82
2023/07/15 12:11:53;;;;;;;4.82;4.43;;;57.50;10.70;;;;;;5050215;28;20056;-79
2023/07/15 12:14:19;;;;;;;5.55;5.05;;;57.60;11.00;;;;;;5052203;28;20120;-79
2023/07/15 12:16:47;;;;;;;5.40;5.00;;;58.30;11.60;;;;;;5050172;28;20458;-79
2023/07/15 12:19:17;;;;;;;5.88;5.47;;;58.60;10.90;;;;;;5082148;28;20123;-79
2023/07/15 12:21:44;;;;;;;5.78;5.38;;;58.70;10.00;;;;;;5070476;28;20032;-79
2023/07/15 12:24:10;;;;;;;4.97;4.57;;;58.50;9.20;;;;;;5070117;28;20037;-82
2023/07/15 12:26:36;;;;;;;5.25;4.85;;;58.40;10.30;;;;;;5053419;28;20035;-79
2023/07/15 12:29:02;;;;;;;5.65;5.25;;;58.60;10.70;;;;;;5053780;28;20444;-82
2023/07/15 12:31:29;;;;;;;6.38;5.88;;;58.70;9.90;;;;;;5078757;28;20024;-81
2023/07/15 12:33:55;;;;;;;6.40;5.90;;;58.70;10.40;;;;;;5070831;28;20044;-81
2023/07/15 12:36:21;;;;;;;7.15;6.65;;;59.00;11.00;;;;;;5070034;28;20032;-78
2023/07/15 12:38:47;;;;;;;5.85;5.45;;;59.00;11.00;;;;;;5071869;28;20033;-78
2023/07/15 12:41:14;;;;;;;6.55;6.05;;;59.30;11.10;;;;;;5070259;28;20481;-82
2023/07/15 12:43:41;;;;;;;5.90;5.47;;;58.90;10.00;;;;;;5071117;28;20481;-80
2023/07/15 12:46:08;;;;;;;6.75;6.25;;;59.00;10.80;;;;;;5053322;28;20506;-79
2023/07/15 12:48:34;;;;;;;7.40;6.90;;;59.30;10.50;;;;;;5054157;28;20025;-79
2023/07/15 12:51:00;;;;;;;6.78;6.28;;;59.30;11.30;;;;;;5070175;28;20033;-81
2023/07/15 12:53:27;;;;;;;6.97;6.47;;;59.10;10.90;;;;;;5072211;28;20037;-80
2023/07/15 12:55:54;;;;;;;6.78;6.28;;;59.30;11.60;;;;;;5068934;28;20039;-78
2023/07/15 12:58:22;;;;;;;6.43;5.93;;;59.60;11.20;;;;;;5080182;28;20366;-78
2023/07/15 13:00:49;;;;;;;6.93;6.43;;;59.70;10.90;;;;;;5094296;28;20550;-78
2023/07/15 13:03:15;;;;;;;7.43;6.93;;;60.00;11.10;;;;;;5079140;28;20032;-81
2023/07/15 13:05:41;;;;;;;6.97;6.47;;;60.40;11.10;;;;;;5057015;28;20041;-78
2023/07/15 13:08:07;;;;;;;6.55;6.03;;;60.50;10.70;;;;;;5074289;28;20040;-81